Time;durP1;ratioP1;P1;durP2;ratioP2;P2;SDS_P1;SDS_P2;PMS_P1;PMS_P2;Temp;Humidity;BMP_temperature;BMP_pressure;BME280_temperature;BME280_humidity;BME280_pressure;Samples;Min_cycle;Max_cycle;Signal;HPM_P1;HPM_P2
2021/01/01 00:02:02;;;;;;;;;;;;;;;23.56;37.14;99399.19;5020047;28;1250;-54
2021/01/01 00:04:27;;;;;;;;;;;;;;;23.57;37.16;99403.50;5026469;28;1405;-55
2021/01/01 00:06:52;;;;;;;;;;;;;;;23.59;37.21;99400.56;5021149;28;1086;-55
2021/01/01 00:09:18;;;;;;;;;;;;;;;23.58;37.19;99406.97;5024284;28;1339;-57
2021/01/01 00:11:47;;;;;;;;;;;;;;;23.58;37.25;99406.97;5021757;28;1906;-57
2021/01/01 00:14:13;;;;;;;;;;;;;;;23.60;37.62;99404.84;5022387;28;1279;-56
2021/01/01 00:16:38;;;;;;;;;;;;;;;23.61;37.57;99417.19;5024003;28;1394;-54
2021/01/01 00:19:03;;;;;;;;;;;;;;;23.60;37.56;99413.72;5022266;28;1369;-54
2021/01/01 00:21:29;;;;;;;;;;;;;;;23.60;37.78;99412.88;5034033;28;1174;-52
2021/01/01 00:23:54;;;;;;;;;;;;;;;23.61;37.70;99409.97;5031354;28;1303;-54
2021/01/01 00:26:20;;;;;;;;;;;;;;;23.62;37.74;99411.59;5028367;28;1442;-55
2021/01/01 00:28:46;;;;;;;;;;;;;;;23.62;37.75;99410.78;5022918;28;1388;-56
2021/01/01 00:31:18;;;;;;;;;;;;;;;23.62;38.00;99410.78;5017234;28;1332;-52
2021/01/01 00:33:43;;;;;;;;;;;;;;;23.63;37.90;99402.53;5017759;28;1963;-54
2021/01/01 00:36:09;;;;;;;;;;;;;;;23.64;37.82;99411.34;5018592;28;1428;-55
2021/01/01 00:38:35;;;;;;;;;;;;;;;23.62;38.31;99405.41;5023356;28;1290;-52
2021/01/01 00:41:00;;;;;;;;;;;;;;;23.62;38.41;99402.75;5028922;28;1214;-53
2021/01/01 00:43:25;;;;;;;;;;;;;;;23.62;38.25;99408.94;5039548;28;1070;-55
2021/01/01 00:45:51;;;;;;;;;;;;;;;23.63;38.19;99399.03;5033696;28;1493;-53
2021/01/01 00:48:16;;;;;;;;;;;;;;;23.62;38.26;99400.91;5023310;28;1342;-53
2021/01/01 00:50:41;;;;;;;;;;;;;;;23.63;38.19;99399.84;5022288;28;1179;-56
2021/01/01 00:53:06;;;;;;;;;;;;;;;23.64;38.34;99393.44;5032942;28;1910;-53
2021/01/01 00:55:32;;;;;;;;;;;;;;;23.64;38.04;99390.75;5036329;28;1254;-56
2021/01/01 00:57:59;;;;;;;;;;;;;;;23.66;38.21;99396.69;5032654;28;1354;-53
2021/01/01 01:00:24;;;;;;;;;;;;;;;23.65;38.15;99395.06;5033567;28;1079;-57
2021/01/01 01:02:49;;;;;;;;;;;;;;;23.66;37.92;99402.03;5026419;28;1161;-56
2021/01/01 01:05:14;;;;;;;;;;;;;;;23.66;38.44;99407.38;5020866;28;1387;-56
2021/01/01 01:07:39;;;;;;;;;;;;;;;23.67;38.32;99405.50;5023149;28;881;-56
2021/01/01 01:10:05;;;;;;;;;;;;;;;23.66;38.57;99410.06;5018108;28;1004;-55
2021/01/01 01:12:31;;;;;;;;;;;;;;;23.67;38.46;99424.22;5022792;28;1902;-56
2021/01/01 01:14:57;;;;;;;;;;;;;;;23.68;38.43;99423.19;5024628;28;1290;-54
2021/01/01 01:17:22;;;;;;;;;;;;;;;23.67;38.51;99435.75;5023679;28;1379;-55
2021/01/01 01:19:47;;;;;;;;;;;;;;;23.66;38.56;99431.47;5024900;28;1185;-55
2021/01/01 01:22:13;;;;;;;;;;;;;;;23.68;38.67;99428.53;5029482;28;1104;-56
2021/01/01 01:24:38;;;;;;;;;;;;;;;23.69;38.96;99444.38;5024184;28;1350;-56
2021/01/01 01:27:03;;;;;;;;;;;;;;;23.67;38.97;99429.59;5033191;28;1065;-57
2021/01/01 01:29:28;;;;;;;;;;;;;;;23.67;38.96;99435.75;5034782;28;1413;-55
2021/01/01 01:31:53;;;;;;;;;;;;;;;23.68;38.68;99442.75;5029320;28;1910;-57
2021/01/01 01:34:18;;;;;;;;;;;;;;;23.69;39.09;99446.22;5024046;28;1320;-55
2021/01/01 01:36:44;;;;;;;;;;;;;;;23.69;39.01;99449.72;5022162;28;1362;-52
2021/01/01 01:39:09;;;;;;;;;;;;;;;23.70;38.81;99443.31;5027517;28;1089;-55
2021/01/01 01:41:34;;;;;;;;;;;;;;;23.70;39.01;99443.31;5021337;28;1371;-54
2021/01/01 01:43:59;;;;;;;;;;;;;;;23.70;39.08;99442.47;5037030;28;1401;-54
2021/01/01 01:46:34;;;;;;;;;;;;;;;23.71;39.34;99452.13;5029146;28;1373;-54
2021/01/01 01:48:59;;;;;;;;;;;;;;;23.71;39.04;99444.94;5037493;28;1271;-57
2021/01/01 01:51:25;;;;;;;;;;;;;;;23.71;39.18;99454.81;5027683;28;1145;-55
2021/01/01 01:53:50;;;;;;;;;;;;;;;23.69;39.39;99449.72;5020051;28;1955;-54
2021/01/01 01:56:16;;;;;;;;;;;;;;;23.70;39.27;99450.50;5019864;28;1348;-56
2021/01/01 01:58:41;;;;;;;;;;;;;;;23.70;39.36;99454.00;5021592;28;1393;-53
2021/01/01 02:01:07;;;;;;;;;;;;;;;23.72;39.11;99459.09;5019960;28;1621;-57
2021/01/01 02:03:33;;;;;;;;;;;;;;;23.72;39.44;99453.75;5024223;28;1122;-56
2021/01/01 02:05:59;;;;;;;;;;;;;;;23.72;39.26;99461.78;5022126;28;1279;-55
2021/01/01 02:08:24;;;;;;;;;;;;;;;23.72;39.26;99464.47;5020473;28;1194;-56
2021/01/01 02:10:51;;;;;;;;;;;;;;;23.75;39.47;99468.53;5026011;28;1137;-54
2021/01/01 02:13:16;;;;;;;;;;;;;;;23.73;39.52;99466.09;5022386;28;1907;-56
2021/01/01 02:15:41;;;;;;;;;;;;;;;23.75;39.54;99472.00;5022364;28;1382;-58
2021/01/01 02:18:07;;;;;;;;;;;;;;;23.75;39.42;99472.00;5028087;28;1113;-57
2021/01/01 02:20:32;;;;;;;;;;;;;;;23.76;39.54;99470.16;5033516;28;1110;-55
2021/01/01 02:22:57;;;;;;;;;;;;;;;23.76;39.16;99476.31;5029744;28;1215;-54
2021/01/01 02:25:22;;;;;;;;;;;;;;;23.78;39.18;99474.19;5020869;28;1425;-56
2021/01/01 02:27:48;;;;;;;;;;;;;;;23.77;39.14;99479.81;5028425;28;1417;-54
2021/01/01 02:30:14;;;;;;;;;;;;;;;23.76;39.11;99481.66;5025364;28;1593;-56
2021/01/01 02:32:39;;;;;;;;;;;;;;;23.75;39.12;99484.59;5019155;28;1910;-56
2021/01/01 02:35:04;;;;;;;;;;;;;;;23.76;39.28;99483.53;5026629;28;1287;-56
2021/01/01 02:37:30;;;;;;;;;;;;;;;23.76;39.24;99487.00;5030656;28;1455;-57
2021/01/01 02:39:55;;;;;;;;;;;;;;;23.78;39.04;99486.78;5023758;28;1952;-54
2021/01/01 02:42:20;;;;;;;;;;;;;;;23.78;39.27;99487.56;5019194;28;1822;-56
2021/01/01 02:44:46;;;;;;;;;;;;;;;23.76;39.29;99481.66;5021082;28;1301;-57
2021/01/01 02:47:12;;;;;;;;;;;;;;;23.75;39.35;99480.03;5022217;28;1331;-54
2021/01/01 02:49:38;;;;;;;;;;;;;;;23.77;39.49;99488.63;5022205;28;1078;-58
2021/01/01 02:52:03;;;;;;;;;;;;;;;23.77;39.41;99487.84;5023722;28;1934;-57
2021/01/01 02:54:28;;;;;;;;;;;;;;;23.76;39.27;99492.38;5018598;28;1393;-54
2021/01/01 02:56:53;;;;;;;;;;;;;;;23.77;39.45;99485.97;5020273;28;1047;-57
2021/01/01 02:59:19;;;;;;;;;;;;;;;23.78;39.39;99492.94;5025066;28;1101;-55
2021/01/01 03:01:44;;;;;;;;;;;;;;;23.77;39.29;99487.84;5023330;28;1249;-55
2021/01/01 03:04:10;;;;;;;;;;;;;;;23.77;39.48;99499.34;5039151;28;1296;-56
2021/01/01 03:06:35;;;;;;;;;;;;;;;23.78;39.17;99498.28;5039144;28;1137;-57
2021/01/01 03:09:01;;;;;;;;;;;;;;;23.78;39.38;99497.47;5027785;28;1263;-57
2021/01/01 03:11:26;;;;;;;;;;;;;;;23.78;39.48;99495.59;5029062;28;1420;-57
2021/01/01 03:13:52;;;;;;;;;;;;;;;23.79;39.39;99499.91;5039919;28;1898;-57
2021/01/01 03:16:17;;;;;;;;;;;;;;;23.81;39.40;99499.69;5037090;28;1460;-56
2021/01/01 03:18:42;;;;;;;;;;;;;;;23.80;39.32;99506.09;5026064;28;1124;-52
2021/01/01 03:21:07;;;;;;;;;;;;;;;23.79;39.57;99507.94;5023044;28;1239;-53
2021/01/01 03:23:32;;;;;;;;;;;;;;;23.80;39.44;99501.53;5023087;28;1472;-55
2021/01/01 03:25:58;;;;;;;;;;;;;;;23.78;39.64;99508.19;5025706;28;1395;-52
2021/01/01 03:28:23;;;;;;;;;;;;;;;23.80;39.42;99512.22;5028975;28;1439;-52
2021/01/01 03:30:48;;;;;;;;;;;;;;;23.78;39.71;99506.31;5026994;28;1487;-53
2021/01/01 03:33:13;;;;;;;;;;;;;;;23.78;39.60;99511.66;5019140;28;1898;-54
2021/01/01 03:35:39;;;;;;;;;;;;;;;23.79;39.74;99512.50;5023511;28;1282;-56
2021/01/01 03:38:04;;;;;;;;;;;;;;;23.78;39.41;99513.53;5024949;28;1074;-53
2021/01/01 03:40:30;;;;;;;;;;;;;;;23.77;39.80;99507.38;5024057;28;1243;-57
2021/01/01 03:42:55;;;;;;;;;;;;;;;23.77;39.76;99512.72;5024980;28;1109;-56
2021/01/01 03:45:20;;;;;;;;;;;;;;;23.76;39.83;99511.09;5026125;28;1268;-56
2021/01/01 03:47:45;;;;;;;;;;;;;;;23.77;39.88;99514.59;5026142;28;1169;-56
2021/01/01 03:50:11;;;;;;;;;;;;;;;23.76;39.73;99519.13;5021715;28;1140;-55
2021/01/01 03:52:36;;;;;;;;;;;;;;;23.76;39.87;99512.97;5025549;28;1911;-57
2021/01/01 03:55:01;;;;;;;;;;;;;;;23.76;39.36;99515.66;5026320;28;1336;-53
2021/01/01 03:57:26;;;;;;;;;;;;;;;23.76;39.80;99521.78;5021522;28;1694;-55
2021/01/01 03:59:51;;;;;;;;;;;;;;;23.74;39.84;99515.06;5022643;28;1383;-54
2021/01/01 04:02:17;;;;;;;;;;;;;;;23.75;39.64;99512.16;5023951;28;1061;-53
2021/01/01 04:04:42;;;;;;;;;;;;;;;23.75;39.64;99522.84;5019950;28;1386;-56
2021/01/01 04:07:07;;;;;;;;;;;;;;;23.75;39.71;99519.38;5020376;28;1237;-56
2021/01/01 04:09:32;;;;;;;;;;;;;;;23.75;39.77;99519.38;5021534;28;1159;-57
2021/01/01 04:11:58;;;;;;;;;;;;;;;23.74;39.87;99517.75;5021619;28;1910;-57
2021/01/01 04:14:23;;;;;;;;;;;;;;;23.74;39.70;99509.72;5022341;28;1402;-54
2021/01/01 04:16:48;;;;;;;;;;;;;;;23.73;39.87;99506.22;5024391;28;1016;-57
2021/01/01 04:19:13;;;;;;;;;;;;;;;23.75;39.67;99524.72;5024675;28;1407;-57
2021/01/01 04:21:44;;;;;;;;;;;;;;;23.73;39.71;99514.25;5033347;28;1015;-53
2021/01/01 04:24:09;;;;;;;;;;;;;;;23.73;39.57;99518.81;5019649;28;1470;-56
2021/01/01 04:26:34;;;;;;;;;;;;;;;23.74;39.63;99518.53;5030000;28;1087;-56
2021/01/01 04:28:59;;;;;;;;;;;;;;;23.74;39.50;99520.44;5018118;28;1164;-53
2021/01/01 04:31:24;;;;;;;;;;;;;;;23.73;39.79;99524.94;5023661;28;1126;-57
2021/01/01 04:33:50;;;;;;;;;;;;;;;23.74;39.53;99526.56;5024153;28;1958;-55
2021/01/01 04:36:15;;;;;;;;;;;;;;;23.73;39.56;99530.31;5025908;28;1220;-53
2021/01/01 04:38:40;;;;;;;;;;;;;;;23.73;39.61;99524.16;5018055;28;1125;-54
2021/01/01 04:41:07;;;;;;;;;;;;;;;23.73;39.62;99526.84;5025298;28;1130;-55
2021/01/01 04:43:33;;;;;;;;;;;;;;;23.73;39.50;99522.28;5017675;28;1122;-55
2021/01/01 04:45:58;;;;;;;;;;;;;;;23.73;39.36;99532.19;5027755;28;1291;-57
2021/01/01 04:48:23;;;;;;;;;;;;;;;23.73;39.49;99535.66;5018493;28;1086;-52
2021/01/01 04:50:48;;;;;;;;;;;;;;;23.73;39.45;99527.63;5025556;28;1096;-54
2021/01/01 04:53:15;;;;;;;;;;;;;;;23.73;39.55;99538.31;5028074;28;1961;-55
2021/01/01 04:55:40;;;;;;;;;;;;;;;23.74;39.51;99533.81;5017982;28;1340;-54
2021/01/01 04:58:06;;;;;;;;;;;;;;;23.74;39.62;99533.81;5027108;28;1138;-54
2021/01/01 05:00:32;;;;;;;;;;;;;;;23.73;39.39;99530.31;5017711;28;1149;-57
2021/01/01 05:02:57;;;;;;;;;;;;;;;23.73;39.54;99532.97;5021810;28;1105;-56
2021/01/01 05:05:26;;;;;;;;;;;;;;;23.75;39.53;99530.88;5027954;28;1373;-56
2021/01/01 05:07:51;;;;;;;;;;;;;;;23.75;39.46;99533.56;5022148;28;1159;-54
2021/01/01 05:10:16;;;;;;;;;;;;;;;23.75;39.08;99536.22;5020151;28;1371;-55
2021/01/01 05:12:41;;;;;;;;;;;;;;;23.75;39.23;99538.09;5029845;28;1894;-57
2021/01/01 05:15:07;;;;;;;;;;;;;;;23.74;39.68;99536.47;5021260;28;1379;-56
2021/01/01 05:17:36;;;;;;;;;;;;;;;23.74;39.50;99539.94;5022353;28;1148;-53
2021/01/01 05:20:10;;;;;;;;;;;;;;;23.73;39.33;99538.31;5023648;28;1085;-54
2021/01/01 05:22:35;;;;;;;;;;;;;;;23.75;39.42;99540.78;5018939;28;1142;-57
2021/01/01 05:25:03;;;;;;;;;;;;;;;23.73;39.41;99541.00;5025309;28;1358;-57
2021/01/01 05:27:32;;;;;;;;;;;;;;;23.74;39.18;99541.84;5027753;28;1132;-56
2021/01/01 05:29:57;;;;;;;;;;;;;;;23.75;39.26;99540.78;5023006;28;1293;-57
2021/01/01 05:32:23;;;;;;;;;;;;;;;23.73;39.26;99545.56;5017981;28;1890;-54
2021/01/01 05:34:48;;;;;;;;;;;;;;;23.75;39.26;99548.81;5022208;28;1534;-55
2021/01/01 05:37:27;;;;;;;;;;;;;;;23.73;39.31;99543.69;5026038;28;1087;-54
2021/01/01 05:40:07;;;;;;;;;;;;;;;23.75;39.34;99548.81;5039036;28;1228;-54
2021/01/01 05:42:33;;;;;;;;;;;;;;;23.73;39.14;99550.91;5024937;28;1118;-54
2021/01/01 05:45:11;;;;;;;;;;;;;;;23.73;39.46;99548.25;5023908;28;1294;-55
2021/01/01 05:47:36;;;;;;;;;;;;;;;23.73;39.43;99546.34;5021332;28;1065;-55
2021/01/01 05:50:01;;;;;;;;;;;;;;;23.74;39.33;99549.84;5025285;28;2001;-55
2021/01/01 05:52:26;;;;;;;;;;;;;;;23.73;39.37;99550.91;5031604;28;1971;-57
2021/01/01 05:54:58;;;;;;;;;;;;;;;23.71;39.44;99551.13;5028377;28;1470;-57
2021/01/01 05:57:32;;;;;;;;;;;;;;;23.73;39.36;99557.06;5021714;28;1138;-54
2021/01/01 05:59:57;;;;;;;;;;;;;;;23.74;39.42;99558.69;5022782;28;1261;-52
2021/01/01 06:02:23;;;;;;;;;;;;;;;23.73;39.58;99561.63;5020422;28;1076;-53
2021/01/01 06:04:50;;;;;;;;;;;;;;;23.73;39.61;99575.78;5022664;28;1426;-56
2021/01/01 06:07:18;;;;;;;;;;;;;;;23.72;39.55;99582.19;5023244;28;1138;-53
2021/01/01 06:09:44;;;;;;;;;;;;;;;23.68;39.67;99576.53;5022863;28;1426;-55
2021/01/01 06:12:10;;;;;;;;;;;;;;;23.73;39.71;99591.06;5021132;28;1903;-54
2021/01/01 06:14:35;;;;;;;;;;;;;;;23.73;39.73;99588.38;5023650;28;1374;-54
2021/01/01 06:17:09;;;;;;;;;;;;;;;23.73;39.62;99583.81;5026137;28;1178;-53
2021/01/01 06:19:44;;;;;;;;;;;;;;;23.73;39.64;99599.06;5025163;28;1165;-57
2021/01/01 06:22:12;;;;;;;;;;;;;;;23.73;39.61;99599.88;5021799;28;1052;-54
2021/01/01 06:24:41;;;;;;;;;;;;;;;23.73;39.56;99597.19;5024862;28;1353;-55
2021/01/01 06:27:06;;;;;;;;;;;;;;;23.74;39.86;99600.69;5018104;28;1028;-56
2021/01/01 06:29:32;;;;;;;;;;;;;;;23.74;39.67;99603.38;5024798;28;1125;-54
2021/01/01 06:31:57;;;;;;;;;;;;;;;23.75;39.75;99603.13;5020360;28;1969;-55
2021/01/01 06:34:31;;;;;;;;;;;;;;;23.75;39.58;99613.03;5026773;28;1375;-53
2021/01/01 06:36:57;;;;;;;;;;;;;;;23.73;39.70;99615.13;5025462;28;881;-56
2021/01/01 06:39:35;;;;;;;;;;;;;;;23.74;39.96;99620.22;5025737;28;1146;-55
2021/01/01 06:42:00;;;;;;;;;;;;;;;23.76;39.87;99620.00;5025149;28;1137;-56
2021/01/01 06:44:35;;;;;;;;;;;;;;;23.74;39.62;99632.81;5026649;28;1296;-55
2021/01/01 06:47:00;;;;;;;;;;;;;;;23.69;39.71;99629.00;5024962;28;943;-53
2021/01/01 06:49:29;;;;;;;;;;;;;;;23.75;39.94;99650.50;5025412;28;1093;-53
2021/01/01 06:52:09;;;;;;;;;;;;;;;23.75;39.85;99648.63;5028478;28;1032;-55
2021/01/01 06:54:52;;;;;;;;;;;;;;;23.76;39.60;99658.28;5021238;28;1296;-55
2021/01/01 06:57:17;;;;;;;;;;;;;;;23.74;39.68;99659.56;5024236;28;1149;-55
2021/01/01 06:59:42;;;;;;;;;;;;;;;23.75;39.85;99661.19;5020103;28;1054;-54
2021/01/01 07:02:18;;;;;;;;;;;;;;;23.74;39.64;99659.56;5027041;28;955;-52
2021/01/01 07:04:47;;;;;;;;;;;;;;;23.75;39.64;99655.84;5025784;28;1450;-54
2021/01/01 07:07:32;;;;;;;;;;;;;;;23.74;39.90;99667.59;5023392;28;1101;-55
2021/01/01 07:09:57;;;;;;;;;;;;;;;23.74;39.79;99664.94;5022863;28;1718;-58
2021/01/01 07:12:22;;;;;;;;;;;;;;;23.75;39.74;99672.69;5030592;28;1902;-53
2021/01/01 07:14:47;;;;;;;;;;;;;;;23.75;39.56;99671.91;5020781;28;1383;-56
2021/01/01 07:17:13;;;;;;;;;;;;;;;23.72;39.67;99675.84;5024119;28;1358;-56
2021/01/01 07:19:38;;;;;;;;;;;;;;;23.73;39.43;99682.03;5029335;28;1151;-56
2021/01/01 07:22:03;;;;;;;;;;;;;;;23.72;39.61;99681.19;5023414;28;1174;-54
2021/01/01 07:24:28;;;;;;;;;;;;;;;23.71;39.80;99683.09;5029048;28;1222;-55
2021/01/01 07:26:55;;;;;;;;;;;;;;;23.72;39.62;99686.56;5021352;28;1107;-52
2021/01/01 07:29:23;;;;;;;;;;;;;;;23.73;39.70;99692.72;5019847;28;1158;-54
2021/01/01 07:31:49;;;;;;;;;;;;;;;23.72;39.72;99686.56;5027051;28;995;-57
2021/01/01 07:34:14;;;;;;;;;;;;;;;23.73;39.74;99695.41;5026829;28;1894;-53
2021/01/01 07:36:39;;;;;;;;;;;;;;;23.71;39.62;99696.47;5024404;28;1075;-55
2021/01/01 07:39:05;;;;;;;;;;;;;;;23.70;39.71;99700.19;5021831;28;1454;-57
2021/01/01 07:41:31;;;;;;;;;;;;;;;23.70;39.75;99700.19;5023127;28;900;-53
2021/01/01 07:43:56;;;;;;;;;;;;;;;23.70;39.76;99700.19;5024417;28;1081;-55
2021/01/01 07:46:21;;;;;;;;;;;;;;;23.69;39.87;99701.22;5022986;28;1113;-57
2021/01/01 07:48:52;;;;;;;;;;;;;;;23.68;39.56;99699.59;5026151;28;1382;-57
2021/01/01 07:51:18;;;;;;;;;;;;;;;23.69;39.56;99705.75;5024073;28;1086;-56
2021/01/01 07:53:44;;;;;;;;;;;;;;;23.68;39.69;99704.97;5023487;28;1973;-53
2021/01/01 07:56:09;;;;;;;;;;;;;;;23.68;39.52;99707.63;5021290;28;1271;-54
2021/01/01 07:58:35;;;;;;;;;;;;;;;23.68;39.79;99704.97;5027090;28;1087;-56
2021/01/01 08:01:01;;;;;;;;;;;;;;;23.63;39.54;99710.19;5024323;28;1036;-57
2021/01/01 08:03:27;;;;;;;;;;;;;;;23.67;39.52;99719.38;5028335;28;1105;-55
2021/01/01 08:05:52;;;;;;;;;;;;;;;23.68;39.60;99725.53;5019153;28;1874;-55
2021/01/01 08:08:19;;;;;;;;;;;;;;;23.68;39.77;99717.50;5022962;28;1220;-57
2021/01/01 08:10:45;;;;;;;;;;;;;;;23.67;39.66;99713.22;5030787;28;2179;-56
2021/01/01 08:13:29;;;;;;;;;;;;;;;23.63;39.66;99712.03;5029775;28;1969;-53
2021/01/01 08:16:10;;;;;;;;;;;;;;;23.67;39.59;99714.03;5026801;28;1332;-53
2021/01/01 08:18:35;;;;;;;;;;;;;;;23.67;39.60;99723.91;5024514;28;1161;-56
2021/01/01 08:21:01;;;;;;;;;;;;;;;23.67;39.70;99726.59;5022506;28;1027;-54
2021/01/01 08:23:27;;;;;;;;;;;;;;;23.66;39.57;99728.47;5026795;28;1086;-55
2021/01/01 08:25:53;;;;;;;;;;;;;;;23.68;39.29;99733.56;5032405;28;1389;-55
2021/01/01 08:28:20;;;;;;;;;;;;;;;23.67;39.54;99734.59;5030472;28;1098;-57
2021/01/01 08:30:51;;;;;;;;;;;;;;;23.67;39.71;99738.13;5022209;28;1079;-56
2021/01/01 08:33:17;;;;;;;;;;;;;;;23.67;39.63;99737.28;5017560;28;1954;-57
2021/01/01 08:35:42;;;;;;;;;;;;;;;23.68;39.39;99733.56;5017424;28;1283;-54
2021/01/01 08:38:19;;;;;;;;;;;;;;;23.67;39.57;99740.78;5021653;28;1548;-55
2021/01/01 08:40:52;;;;;;;;;;;;;;;23.68;39.43;99747.78;5022061;28;1020;-57
2021/01/01 08:43:17;;;;;;;;;;;;;;;23.67;39.67;99745.31;5023483;28;1292;-55
2021/01/01 08:45:43;;;;;;;;;;;;;;;23.67;39.51;99754.16;5023650;28;1399;-55
2021/01/01 08:48:09;;;;;;;;;;;;;;;23.67;39.54;99751.50;5021760;28;1178;-52
2021/01/01 08:50:41;;;;;;;;;;;;;;;23.68;39.58;99754.97;5029175;28;1166;-50
2021/01/01 08:53:06;;;;;;;;;;;;;;;23.67;39.63;99754.16;5023196;28;1922;-51
2021/01/01 08:55:31;;;;;;;;;;;;;;;23.67;39.65;99753.34;5023471;28;1269;-54
2021/01/01 08:58:10;;;;;;;;;;;;;;;23.67;39.66;99756.03;5020398;28;1162;-53
2021/01/01 09:00:36;;;;;;;;;;;;;;;23.67;39.44;99759.53;5023915;28;1183;-55
2021/01/01 09:03:02;;;;;;;;;;;;;;;23.68;39.33;99757.66;5027061;28;1201;-55
2021/01/01 09:05:27;;;;;;;;;;;;;;;23.67;39.32;99756.84;5027983;28;1372;-54
2021/01/01 09:08:04;;;;;;;;;;;;;;;23.67;39.31;99753.34;5023633;28;1150;-52
2021/01/01 09:10:29;;;;;;;;;;;;;;;23.68;39.44;99769.19;5021104;28;1035;-52
2021/01/01 09:12:55;;;;;;;;;;;;;;;23.68;39.52;99776.38;5023326;28;1901;-54
2021/01/01 09:15:27;;;;;;;;;;;;;;;23.68;39.60;99779.88;5021925;28;1394;-55
2021/01/01 09:18:01;;;;;;;;;;;;;;;23.68;39.33;99784.41;5026400;28;1023;-53
2021/01/01 09:20:26;;;;;;;;;;;;;;;23.68;39.65;99782.56;5018324;28;1316;-52
2021/01/01 09:22:58;;;;;;;;;;;;;;;23.67;39.52;99783.59;5022650;28;1205;-53
2021/01/01 09:25:25;;;;;;;;;;;;;;;23.69;39.32;99791.38;5021578;28;1376;-55
2021/01/01 09:27:51;;;;;;;;;;;;;;;23.69;39.34;99794.06;5014880;28;1213;-53
2021/01/01 09:30:17;;;;;;;;;;;;;;;23.70;39.36;99798.38;5028870;28;1075;-52
2021/01/01 09:32:45;;;;;;;;;;;;;;;23.68;39.39;99790.59;5019352;28;1898;-54
2021/01/01 09:35:11;;;;;;;;;;;;;;;23.68;39.29;99798.59;5015901;28;2045;-55
2021/01/01 09:37:36;;;;;;;;;;;;;;;23.68;39.37;99801.28;5022661;28;1065;-54
2021/01/01 09:40:01;;;;;;;;;;;;;;;23.68;39.37;99814.66;5021376;28;1250;-53
2021/01/01 09:42:26;;;;;;;;;;;;;;;23.67;39.50;99814.88;5016191;28;1035;-56
2021/01/01 09:44:51;;;;;;;;;;;;;;;23.68;39.35;99811.16;5020943;28;1849;-52
2021/01/01 09:47:16;;;;;;;;;;;;;;;23.68;39.58;99811.16;5020647;28;1392;-55
2021/01/01 09:49:42;;;;;;;;;;;;;;;23.69;39.44;99818.97;5020923;28;1043;-55
2021/01/01 09:52:07;;;;;;;;;;;;;;;23.69;39.57;99818.97;5019638;28;1965;-54
2021/01/01 09:54:32;;;;;;;;;;;;;;;23.69;39.51;99826.16;5014022;28;1292;-55
2021/01/01 09:56:59;;;;;;;;;;;;;;;23.69;39.52;99831.53;5014228;28;1159;-53
2021/01/01 09:59:24;;;;;;;;;;;;;;;23.68;39.40;99830.72;5015753;28;1467;-55
2021/01/01 10:01:50;;;;;;;;;;;;;;;23.69;39.74;99829.69;5017918;28;1852;-52
2021/01/01 10:04:15;;;;;;;;;;;;;;;23.68;39.29;99833.41;5024715;28;1277;-55
2021/01/01 10:06:40;;;;;;;;;;;;;;;23.68;39.07;99829.88;5027450;28;1034;-53
2021/01/01 10:09:05;;;;;;;;;;;;;;;23.68;38.87;99835.25;5029574;28;1031;-54
2021/01/01 10:11:30;;;;;;;;;;;;;;;23.67;38.83;99837.13;5031636;28;1094;-53
2021/01/01 10:13:55;;;;;;;;;;;;;;;23.66;38.75;99838.16;5026149;28;1947;-54
2021/01/01 10:16:21;;;;;;;;;;;;;;;23.67;38.81;99831.78;5023439;28;1305;-54
2021/01/01 10:18:46;;;;;;;;;;;;;;;23.66;38.46;99834.66;5020552;28;1448;-53
2021/01/01 10:21:13;;;;;;;;;;;;;;;23.65;38.44;99833.03;5027605;28;1488;-53
2021/01/01 10:23:40;;;;;;;;;;;;;;;23.65;38.46;99839.22;5029382;28;1125;-55
2021/01/01 10:26:08;;;;;;;;;;;;;;;23.65;38.12;99835.72;5033725;28;1134;-56
2021/01/01 10:28:33;;;;;;;;;;;;;;;23.64;38.25;99840.25;5034272;28;1085;-55
2021/01/01 10:30:59;;;;;;;;;;;;;;;23.63;37.99;99835.97;5028050;28;1093;-53
2021/01/01 10:33:24;;;;;;;;;;;;;;;23.63;38.02;99838.63;5023838;28;1890;-55
2021/01/01 10:35:49;;;;;;;;;;;;;;;23.62;37.88;99834.31;5023417;28;1446;-55
2021/01/01 10:38:15;;;;;;;;;;;;;;;23.63;37.86;99835.97;5024945;28;1158;-54
2021/01/01 10:40:40;;;;;;;;;;;;;;;23.63;37.84;99832.44;5027613;28;888;-57
2021/01/01 10:43:05;;;;;;;;;;;;;;;23.61;37.70;99829.19;5026258;28;1055;-56
2021/01/01 10:45:30;;;;;;;;;;;;;;;23.61;37.58;99832.69;5024695;28;1271;-52
2021/01/01 10:47:55;;;;;;;;;;;;;;;23.61;37.45;99830.03;5024078;28;1035;-56
2021/01/01 10:50:21;;;;;;;;;;;;;;;23.61;37.33;99826.50;5028444;28;1590;-57
2021/01/01 10:52:47;;;;;;;;;;;;;;;23.61;37.58;99826.50;5027288;28;1898;-56
2021/01/01 10:55:12;;;;;;;;;;;;;;;23.61;37.49;99824.66;5028156;28;1316;-57
2021/01/01 10:57:37;;;;;;;;;;;;;;;23.60;37.27;99827.56;5024091;28;1144;-54
2021/01/01 11:00:05;;;;;;;;;;;;;;;23.59;37.33;99826.75;5027043;28;1137;-54
2021/01/01 11:02:30;;;;;;;;;;;;;;;23.60;37.38;99833.75;5024230;28;1262;-56
2021/01/01 11:04:55;;;;;;;;;;;;;;;23.60;37.36;99832.91;5021852;28;1302;-55
2021/01/01 11:07:20;;;;;;;;;;;;;;;23.60;37.27;99827.56;5025953;28;1114;-56
2021/01/01 11:09:45;;;;;;;;;;;;;;;23.59;36.99;99831.28;5016640;28;1110;-56
2021/01/01 11:12:10;;;;;;;;;;;;;;;23.59;37.21;99840.13;5025710;28;1898;-54
2021/01/01 11:15:17;;;;;;;;;;;;;;;23.59;37.11;99829.44;5031108;28;1382;-54
2021/01/01 12:25:48;;;;;;;;;;;;;;;23.51;36.12;99811.06;5017557;28;1279;-55
2021/01/01 12:28:14;;;;;;;;;;;;;;;23.51;36.01;99809.19;5015094;28;1226;-54
2021/01/01 12:30:40;;;;;;;;;;;;;;;23.50;35.87;99804.88;5015149;28;1269;-55
2021/01/01 12:33:08;;;;;;;;;;;;;;;23.51;36.16;99816.41;5014042;28;1976;-53
2021/01/01 12:35:35;;;;;;;;;;;;;;;23.51;36.01;99813.72;5017947;28;1269;-56
2021/01/01 12:38:02;;;;;;;;;;;;;;;23.50;35.87;99812.91;5026002;28;1078;-56
2021/01/01 12:40:28;;;;;;;;;;;;;;;23.50;35.86;99815.56;5019900;28;1312;-56
2021/01/01 12:42:54;;;;;;;;;;;;;;;23.50;35.92;99815.56;5013010;28;1095;-54
2021/01/01 12:45:19;;;;;;;;;;;;;;;23.49;35.91;99821.97;5015844;28;1453;-53
2021/01/01 12:47:44;;;;;;;;;;;;;;;23.49;35.85;99813.94;5014188;28;1246;-51
2021/01/01 12:50:10;;;;;;;;;;;;;;;23.50;35.81;99823.59;5020437;28;1242;-54
2021/01/01 12:52:35;;;;;;;;;;;;;;;23.50;35.87;99820.91;5018544;28;2085;-54
2021/01/01 12:55:00;;;;;;;;;;;;;;;23.49;36.01;99821.16;5022513;28;1375;-54
2021/01/01 12:57:25;;;;;;;;;;;;;;;23.50;35.89;99830.81;5018077;28;1313;-54
2021/01/01 12:59:50;;;;;;;;;;;;;;;23.49;35.72;99830.00;5021083;28;1246;-50
2021/01/01 13:02:15;;;;;;;;;;;;;;;23.48;35.76;99828.38;5019007;28;1416;-55
2021/01/01 13:04:41;;;;;;;;;;;;;;;23.48;35.64;99831.03;5017553;28;1395;-50
2021/01/01 13:07:06;;;;;;;;;;;;;;;23.48;35.81;99839.06;5019142;28;1404;-50
2021/01/01 13:09:31;;;;;;;;;;;;;;;23.49;35.60;99839.91;5020785;28;1452;-48
2021/01/01 13:11:57;;;;;;;;;;;;;;;23.48;35.73;99840.94;5024397;28;1126;-51
2021/01/01 13:14:22;;;;;;;;;;;;;;;23.48;35.79;99847.09;5024812;28;1906;-50
2021/01/01 13:16:47;;;;;;;;;;;;;;;23.48;35.54;99854.31;5022266;28;1500;-48
2021/01/01 13:19:12;;;;;;;;;;;;;;;23.47;35.59;99844.66;5017561;28;1329;-51
2021/01/01 13:21:39;;;;;;;;;;;;;;;23.47;35.52;99844.66;5023802;28;1091;-50
2021/01/01 13:24:04;;;;;;;;;;;;;;;23.44;35.52;99842.44;5018755;28;1488;-49
2021/01/01 13:26:30;;;;;;;;;;;;;;;23.47;35.60;99852.69;5026055;28;1206;-51
2021/01/01 13:28:56;;;;;;;;;;;;;;;23.46;35.64;99851.84;5023874;28;1134;-53
2021/01/01 13:31:22;;;;;;;;;;;;;;;23.46;35.63;99857.19;5026532;28;1283;-52
2021/01/01 13:33:49;;;;;;;;;;;;;;;23.46;35.35;99856.41;5026505;28;1945;-55
2021/01/01 13:36:15;;;;;;;;;;;;;;;23.44;35.30;99855.81;5024470;28;1181;-56
2021/01/01 13:38:40;;;;;;;;;;;;;;;23.45;35.37;99858.25;5020402;28;1444;-53
2021/01/01 13:41:09;;;;;;;;;;;;;;;23.45;35.48;99862.78;5017903;28;1107;-48
2021/01/01 13:43:34;;;;;;;;;;;;;;;23.44;35.35;99866.53;5014337;28;1468;-48
2021/01/01 13:45:59;;;;;;;;;;;;;;;23.44;35.43;99863.84;5016830;28;1368;-48
2021/01/01 13:48:25;;;;;;;;;;;;;;;23.44;35.53;99872.66;5016419;28;1189;-51
2021/01/01 13:50:50;;;;;;;;;;;;;;;23.43;35.28;99868.34;5027547;28;1676;-48
2021/01/01 13:53:15;;;;;;;;;;;;;;;23.41;35.49;99876.63;5030901;28;1969;-50
2021/01/01 13:55:40;;;;;;;;;;;;;;;23.42;35.29;99875.59;5020941;28;1296;-52
2021/01/01 13:58:06;;;;;;;;;;;;;;;23.42;35.22;99883.59;5020830;28;1160;-51
2021/01/01 14:00:31;;;;;;;;;;;;;;;23.42;35.29;99880.94;5027806;28;1079;-55
2021/01/01 14:02:56;;;;;;;;;;;;;;;23.41;35.13;99881.97;5022209;28;1383;-52